Hansen, Wisconsin
Current Conditions -  °F | °C
As of 12:54 PM on Thursday 27 Nov 2014 (Local Time) from KISW Reporting Station
Clear Clear  
Wind Chill:   Ceiling: Unl
Heat Index: 13°   Visibility: NA
Dew Point:   Wind: 5mph
Humidity: 65%   Direction: 330°NNW
Pressure: 30.38"   Gusts: NA
Location:  44.4583°N, 90.0009°W
Report Text: KISW 271854Z AUTO 33004KT CLR M11/M16 A3038 RMK AO2 SLP308 T11061161 $
Loading
Personal Weather Stations






























Interactive Weather Map New forecast layout! Learn more

10-Day Weather Forecast

Advertisements
Track Severe Weather on mobile